createdAt,value
2023-01-31T00:01:36.582Z,5.67
2023-01-31T00:04:09.208Z,4.57
2023-01-31T00:06:39.465Z,4.77
2023-01-31T00:09:08.817Z,5.37
2023-01-31T00:11:36.516Z,4.40
2023-01-31T00:14:06.024Z,4.83
2023-01-31T00:16:33.321Z,4.63
2023-01-31T00:19:00.701Z,4.73
2023-01-31T00:21:30.061Z,5.13
2023-01-31T00:23:58.785Z,4.77
2023-01-31T00:26:27.211Z,5.10
2023-01-31T00:28:55.602Z,5.20
2023-01-31T00:31:24.643Z,4.13
2023-01-31T00:33:57.439Z,5.37
2023-01-31T00:36:31.306Z,5.53
2023-01-31T00:39:00.461Z,4.67
2023-01-31T00:41:29.642Z,5.27
2023-01-31T00:43:57.639Z,5.30
2023-01-31T00:46:24.961Z,5.20
2023-01-31T00:48:52.720Z,5.80
2023-01-31T00:51:20.572Z,5.10
2023-01-31T00:53:48.296Z,4.37
2023-01-31T00:56:21.842Z,4.50
2023-01-31T00:58:49.852Z,4.93
2023-01-31T01:01:18.351Z,4.90
2023-01-31T01:03:46.650Z,4.43
2023-01-31T01:06:14.204Z,4.33
2023-01-31T01:08:42.164Z,3.97
2023-01-31T01:11:12.176Z,4.27
2023-01-31T01:13:39.934Z,4.97
2023-01-31T01:16:08.982Z,4.90
2023-01-31T01:18:36.733Z,4.87
2023-01-31T01:21:11.639Z,4.63
2023-01-31T01:23:40.141Z,5.00
2023-01-31T01:26:14.054Z,4.40
2023-01-31T01:28:41.371Z,4.53
2023-01-31T01:31:11.133Z,4.47
2023-01-31T01:33:38.131Z,4.07
2023-01-31T01:36:07.370Z,4.17
2023-01-31T01:38:36.392Z,4.30
2023-01-31T01:41:04.871Z,4.23
2023-01-31T01:43:41.187Z,4.40
2023-01-31T01:46:10.560Z,3.13
2023-01-31T01:48:38.536Z,4.03
2023-01-31T01:51:07.255Z,3.97
2023-01-31T01:53:38.661Z,3.83
2023-01-31T01:56:14.027Z,3.83
2023-01-31T01:58:57.286Z,3.87
2023-01-31T02:01:27.543Z,4.13
2023-01-31T02:03:54.664Z,3.77
2023-01-31T02:06:22.250Z,3.40
2023-01-31T02:08:49.474Z,3.70
2023-01-31T02:11:24.311Z,3.90
2023-01-31T02:14:11.752Z,3.50
2023-01-31T02:16:38.924Z,3.57
2023-01-31T02:19:32.066Z,3.67
2023-01-31T02:22:19.981Z,3.57
2023-01-31T02:25:34.032Z,3.40
2023-01-31T02:28:23.096Z,3.40
2023-01-31T02:31:12.297Z,3.30
2023-01-31T02:34:14.448Z,3.33
2023-01-31T02:37:12.135Z,3.23
2023-01-31T02:39:45.573Z,3.60
2023-01-31T02:42:28.007Z,3.80
2023-01-31T02:45:13.313Z,3.00
2023-01-31T02:47:43.331Z,3.67
2023-01-31T02:50:16.510Z,2.90
2023-01-31T02:52:59.295Z,2.97
2023-01-31T02:55:47.371Z,3.17
2023-01-31T02:58:16.691Z,3.10
2023-01-31T03:00:45.817Z,3.37
2023-01-31T03:03:26.016Z,3.30
2023-01-31T03:06:36.753Z,3.17
2023-01-31T03:09:25.116Z,4.03
2023-01-31T03:12:19.463Z,3.47
2023-01-31T03:15:10.350Z,2.80
2023-01-31T03:18:06.092Z,2.60
2023-01-31T03:20:43.849Z,2.93
2023-01-31T03:23:23.091Z,3.07
2023-01-31T03:25:51.428Z,3.53
2023-01-31T03:28:23.481Z,3.27
2023-01-31T03:30:59.968Z,3.07
2023-01-31T03:33:32.747Z,3.50
2023-01-31T03:36:36.735Z,3.20
2023-01-31T03:39:36.151Z,3.13
2023-01-31T03:42:13.579Z,2.90
2023-01-31T03:45:12.773Z,2.73
2023-01-31T03:47:45.800Z,2.97
2023-01-31T03:50:21.634Z,3.37
2023-01-31T03:53:21.067Z,2.90
2023-01-31T03:56:14.566Z,4.13
2023-01-31T03:58:47.758Z,9.77
2023-01-31T04:01:16.351Z,10.37
2023-01-31T04:03:47.727Z,9.17
2023-01-31T04:06:14.945Z,6.60
2023-01-31T04:08:43.503Z,5.70
2023-01-31T04:11:14.112Z,3.80
2023-01-31T04:13:42.619Z,3.77
2023-01-31T04:16:09.850Z,3.63
2023-01-31T04:18:38.633Z,2.63
2023-01-31T04:21:05.940Z,3.00
2023-01-31T04:23:33.358Z,3.20
2023-01-31T04:26:00.464Z,2.27
2023-01-31T04:28:27.546Z,2.97
2023-01-31T04:30:56.085Z,2.90
2023-01-31T04:33:23.735Z,2.80
2023-01-31T04:35:53.777Z,2.77
2023-01-31T04:38:20.837Z,2.73
2023-01-31T04:40:48.101Z,3.07
2023-01-31T04:43:15.060Z,3.17
2023-01-31T04:45:42.393Z,3.17
2023-01-31T04:48:09.283Z,2.97
2023-01-31T04:50:36.633Z,3.20
2023-01-31T04:53:04.863Z,3.27
2023-01-31T04:55:32.004Z,2.63
2023-01-31T04:58:01.811Z,3.60
2023-01-31T05:00:29.089Z,3.30
2023-01-31T05:02:56.209Z,2.67
2023-01-31T05:05:23.247Z,2.70
2023-01-31T05:07:50.211Z,2.80
2023-01-31T05:10:18.267Z,2.23
2023-01-31T05:12:45.344Z,2.97
2023-01-31T05:15:12.380Z,3.13
2023-01-31T05:17:39.280Z,2.83
2023-01-31T05:20:06.900Z,2.93
2023-01-31T05:22:34.024Z,2.30
2023-01-31T05:25:01.011Z,2.73
2023-01-31T05:27:27.974Z,1.87
2023-01-31T05:29:55.182Z,2.10
2023-01-31T05:32:22.251Z,2.30
2023-01-31T05:34:49.253Z,2.67
2023-01-31T05:37:16.211Z,2.43
2023-01-31T05:39:43.280Z,2.77
2023-01-31T05:42:10.274Z,2.53
2023-01-31T05:44:37.142Z,2.00
2023-01-31T05:47:04.198Z,2.17
2023-01-31T05:49:33.702Z,2.80
2023-01-31T05:52:01.590Z,2.87
2023-01-31T05:54:29.238Z,2.53
2023-01-31T05:56:56.145Z,2.00
2023-01-31T05:59:23.132Z,2.30
2023-01-31T06:01:50.186Z,2.07
2023-01-31T06:04:17.106Z,2.50
2023-01-31T06:06:45.487Z,2.93
2023-01-31T06:09:12.531Z,2.50
2023-01-31T06:11:39.654Z,2.10
2023-01-31T06:14:06.783Z,2.40
2023-01-31T06:16:33.892Z,2.67
2023-01-31T06:19:01.964Z,2.40
2023-01-31T06:21:29.091Z,2.10
2023-01-31T06:23:56.104Z,2.80
2023-01-31T06:26:23.762Z,2.30
2023-01-31T06:28:50.827Z,2.50
2023-01-31T06:31:18.578Z,2.63
2023-01-31T06:33:47.901Z,2.83
2023-01-31T06:36:19.143Z,2.80
2023-01-31T06:38:52.214Z,2.20
2023-01-31T06:41:20.451Z,2.10
2023-01-31T06:43:47.422Z,2.10
2023-01-31T06:46:14.808Z,2.10
2023-01-31T06:48:41.903Z,2.20
2023-01-31T06:51:08.792Z,1.77
2023-01-31T06:53:35.809Z,1.90
2023-01-31T06:56:02.674Z,1.70
2023-01-31T06:58:29.569Z,2.10
2023-01-31T07:00:56.917Z,2.10
2023-01-31T07:03:23.975Z,1.97
2023-01-31T07:05:51.051Z,2.63
2023-01-31T07:08:18.124Z,2.57
2023-01-31T07:10:45.027Z,2.47
2023-01-31T07:13:11.945Z,2.20
2023-01-31T07:15:38.937Z,2.57
2023-01-31T07:18:06.400Z,2.23
2023-01-31T07:20:33.535Z,2.00
2023-01-31T07:23:00.799Z,2.77
2023-01-31T07:25:28.266Z,2.37
2023-01-31T07:27:55.222Z,2.03
2023-01-31T07:30:22.411Z,2.40
2023-01-31T07:32:49.299Z,2.30
2023-01-31T07:35:16.363Z,2.67
2023-01-31T07:37:43.669Z,3.13
2023-01-31T07:40:15.779Z,2.50
2023-01-31T07:42:42.870Z,2.33
2023-01-31T07:45:22.850Z,2.87
2023-01-31T07:47:51.053Z,2.60
2023-01-31T07:50:18.385Z,2.73
2023-01-31T07:52:45.364Z,3.40
2023-01-31T07:55:12.278Z,2.77
2023-01-31T07:57:39.213Z,2.30
2023-01-31T08:00:26.973Z,1.97
2023-01-31T08:03:12.293Z,2.60
2023-01-31T08:05:39.234Z,2.87
2023-01-31T08:08:12.258Z,3.37
2023-01-31T08:10:40.699Z,2.30
2023-01-31T08:13:07.679Z,2.20
2023-01-31T08:15:34.841Z,2.60
2023-01-31T08:18:03.852Z,2.47
2023-01-31T08:20:32.015Z,2.60
2023-01-31T08:23:00.001Z,2.50
2023-01-31T08:25:31.980Z,2.10
2023-01-31T08:27:59.708Z,2.67
2023-01-31T08:30:27.843Z,2.07
2023-01-31T08:32:55.310Z,2.03
2023-01-31T08:35:22.743Z,3.10
2023-01-31T08:37:49.715Z,4.43
2023-01-31T08:40:16.975Z,2.43
2023-01-31T08:42:43.998Z,2.10
2023-01-31T08:45:11.456Z,2.37
2023-01-31T08:47:38.954Z,2.20
2023-01-31T08:50:25.782Z,3.00
2023-01-31T08:53:00.311Z,2.50
2023-01-31T08:55:29.192Z,2.60
2023-01-31T08:58:00.049Z,2.30
2023-01-31T09:00:27.420Z,1.87
2023-01-31T09:02:56.522Z,2.27
2023-01-31T09:05:25.297Z,2.50
2023-01-31T09:07:52.611Z,2.40
2023-01-31T09:10:20.342Z,1.90
2023-01-31T09:12:47.652Z,2.47
2023-01-31T09:15:15.190Z,2.40
2023-01-31T09:17:43.650Z,2.60
2023-01-31T09:20:11.249Z,3.10
2023-01-31T09:22:38.496Z,2.50
2023-01-31T09:25:06.133Z,2.67
2023-01-31T09:27:33.322Z,3.20
2023-01-31T09:30:00.455Z,2.27
2023-01-31T09:32:27.613Z,2.40
2023-01-31T09:34:54.538Z,2.57
2023-01-31T09:37:21.530Z,2.50
2023-01-31T09:39:48.530Z,3.17
2023-01-31T09:42:39.047Z,2.97
2023-01-31T09:45:16.969Z,2.87
2023-01-31T09:47:47.699Z,2.57
2023-01-31T09:50:26.629Z,2.53
2023-01-31T09:52:53.935Z,2.27
2023-01-31T09:55:28.565Z,2.50
2023-01-31T09:58:14.008Z,2.13
2023-01-31T10:01:19.428Z,2.63
2023-01-31T10:04:12.248Z,2.27
2023-01-31T10:06:42.200Z,2.50
2023-01-31T10:09:18.052Z,2.60
2023-01-31T10:11:52.680Z,2.80
2023-01-31T10:14:34.139Z,2.70
2023-01-31T10:17:06.173Z,2.97
2023-01-31T10:19:45.255Z,3.87
2023-01-31T10:22:22.576Z,2.80
2023-01-31T10:24:55.939Z,3.00
2023-01-31T10:27:48.999Z,3.27
2023-01-31T10:30:24.112Z,2.23
2023-01-31T10:32:58.809Z,2.30
2023-01-31T10:35:35.854Z,2.23
2023-01-31T10:38:16.051Z,2.27
2023-01-31T10:40:46.806Z,1.83
2023-01-31T10:43:22.640Z,2.23
2023-01-31T10:45:49.648Z,2.60
2023-01-31T10:48:20.810Z,2.13
2023-01-31T10:51:09.087Z,2.50
2023-01-31T10:53:54.229Z,1.93
2023-01-31T10:56:31.900Z,2.10
2023-01-31T10:59:01.464Z,2.70
2023-01-31T11:01:29.363Z,2.80
2023-01-31T11:03:57.319Z,3.10
2023-01-31T11:06:24.772Z,3.67
2023-01-31T11:08:53.644Z,2.83
2023-01-31T11:11:22.937Z,3.40
2023-01-31T11:14:03.234Z,3.00
2023-01-31T11:16:40.874Z,2.60
2023-01-31T11:19:23.349Z,3.13
2023-01-31T11:21:54.297Z,3.07
2023-01-31T11:24:24.374Z,3.30
2023-01-31T11:27:14.931Z,3.83
2023-01-31T11:29:48.819Z,2.97
2023-01-31T11:32:22.853Z,3.23
2023-01-31T11:34:55.845Z,3.33
2023-01-31T11:37:22.744Z,3.47
2023-01-31T11:39:57.043Z,3.27
2023-01-31T11:42:24.657Z,3.90
2023-01-31T11:45:16.869Z,2.90
2023-01-31T11:47:52.699Z,3.47
2023-01-31T11:51:00.141Z,3.30
2023-01-31T11:53:46.782Z,2.37
2023-01-31T11:56:23.897Z,2.87
2023-01-31T11:58:58.231Z,2.63
2023-01-31T12:01:27.214Z,2.47
2023-01-31T12:04:04.763Z,2.00
2023-01-31T12:06:33.461Z,2.80
2023-01-31T12:09:02.352Z,2.43
2023-01-31T12:11:30.432Z,2.90
2023-01-31T12:14:17.514Z,2.00
2023-01-31T12:16:46.633Z,1.97
2023-01-31T12:19:13.695Z,2.20
2023-01-31T12:22:08.222Z,1.77
2023-01-31T12:24:58.453Z,2.17
2023-01-31T12:27:31.378Z,1.47
2023-01-31T12:30:12.109Z,1.60
2023-01-31T12:33:01.615Z,1.70
2023-01-31T12:35:34.486Z,1.87
2023-01-31T12:38:14.048Z,1.83
2023-01-31T12:41:08.631Z,2.30
2023-01-31T12:44:01.953Z,1.70
2023-01-31T12:46:42.477Z,2.27
2023-01-31T12:49:42.716Z,2.47
2023-01-31T12:52:31.171Z,2.17
2023-01-31T12:55:16.452Z,2.00
2023-01-31T12:57:50.216Z,1.90
2023-01-31T13:00:41.264Z,2.03
2023-01-31T13:03:22.854Z,2.20
2023-01-31T13:06:15.359Z,2.50
2023-01-31T13:09:18.165Z,2.20
2023-01-31T13:11:55.164Z,2.10
2023-01-31T13:14:26.496Z,2.50
2023-01-31T13:16:58.512Z,1.60
2023-01-31T13:19:45.212Z,2.03
2023-01-31T13:22:27.509Z,2.30
2023-01-31T13:25:13.415Z,1.90
2023-01-31T13:27:46.854Z,1.70
2023-01-31T13:30:19.332Z,2.00
2023-01-31T13:32:52.623Z,1.60
2023-01-31T13:35:27.021Z,2.00
2023-01-31T13:38:00.201Z,2.47
2023-01-31T13:40:35.234Z,2.00
2023-01-31T13:43:13.981Z,1.90
2023-01-31T13:46:07.738Z,1.90
2023-01-31T13:48:45.845Z,1.83
2023-01-31T13:51:25.178Z,1.93
2023-01-31T13:54:02.656Z,1.70
2023-01-31T13:56:35.282Z,1.97
2023-01-31T13:59:03.310Z,1.63
2023-01-31T14:01:35.073Z,1.90
2023-01-31T14:04:15.005Z,1.80
2023-01-31T14:06:56.768Z,1.87
2023-01-31T14:09:47.174Z,1.73
2023-01-31T14:12:17.274Z,1.70
2023-01-31T14:14:56.662Z,1.80
2023-01-31T14:17:29.726Z,2.23
2023-01-31T14:20:03.199Z,2.03
2023-01-31T14:22:34.097Z,2.20
2023-01-31T14:25:02.930Z,2.13
2023-01-31T14:27:32.151Z,1.63
2023-01-31T14:30:05.793Z,2.27
2023-01-31T14:32:40.845Z,1.80
2023-01-31T14:35:14.096Z,1.90
2023-01-31T14:37:41.012Z,2.00
2023-01-31T14:40:44.503Z,2.10
2023-01-31T14:43:33.568Z,2.00
2023-01-31T14:46:14.631Z,2.20
2023-01-31T14:49:26.220Z,1.90
2023-01-31T14:52:30.939Z,2.40
2023-01-31T14:55:28.010Z,1.80
2023-01-31T14:57:59.052Z,2.10
2023-01-31T15:00:31.856Z,1.83
2023-01-31T15:03:19.790Z,1.70
2023-01-31T15:05:53.603Z,1.87
2023-01-31T15:08:20.707Z,1.67
2023-01-31T15:11:05.450Z,2.40
2023-01-31T15:13:41.593Z,1.90
2023-01-31T15:16:12.487Z,2.20
2023-01-31T15:18:41.354Z,2.03
2023-01-31T15:21:09.278Z,2.30
2023-01-31T15:23:38.865Z,2.17
2023-01-31T15:26:06.433Z,2.37
2023-01-31T15:28:36.730Z,2.60
2023-01-31T15:31:06.316Z,2.40
2023-01-31T15:33:36.511Z,2.37
2023-01-31T15:36:25.883Z,2.20
2023-01-31T15:38:58.344Z,1.70
2023-01-31T15:41:27.277Z,1.93
2023-01-31T15:43:55.609Z,2.17
2023-01-31T15:46:22.951Z,2.50
2023-01-31T15:48:50.390Z,2.50
2023-01-31T15:51:18.653Z,2.60
2023-01-31T15:53:46.300Z,2.60
2023-01-31T15:56:24.441Z,2.20
2023-01-31T15:58:53.625Z,2.93
2023-01-31T16:01:21.117Z,2.77
2023-01-31T16:03:55.689Z,2.93
2023-01-31T16:06:27.682Z,2.70
2023-01-31T16:09:04.064Z,2.70
2023-01-31T16:11:34.207Z,2.20
2023-01-31T16:14:05.983Z,2.33
2023-01-31T16:16:35.222Z,2.00
2023-01-31T16:19:02.885Z,2.13
2023-01-31T16:21:38.040Z,2.80
2023-01-31T16:24:14.650Z,2.43
2023-01-31T16:26:49.002Z,2.20
2023-01-31T16:29:17.777Z,1.80
2023-01-31T16:31:50.831Z,2.50
2023-01-31T16:34:36.696Z,2.30
2023-01-31T16:37:09.992Z,2.50
2023-01-31T16:39:46.978Z,4.90
2023-01-31T16:42:21.250Z,2.23
2023-01-31T16:44:49.018Z,1.57
2023-01-31T16:47:33.055Z,2.10
2023-01-31T16:50:22.578Z,1.57
2023-01-31T16:52:53.555Z,2.50
2023-01-31T16:55:22.499Z,1.40
2023-01-31T16:57:50.082Z,1.30
2023-01-31T17:00:27.644Z,1.20
2023-01-31T17:02:56.511Z,1.40
2023-01-31T17:05:38.477Z,1.23
2023-01-31T17:08:06.259Z,1.40
2023-01-31T17:10:34.886Z,1.47
2023-01-31T17:13:03.668Z,1.37
2023-01-31T17:15:31.083Z,1.87
2023-01-31T17:17:58.526Z,1.80
2023-01-31T17:20:25.930Z,1.93
2023-01-31T17:23:02.296Z,1.80
2023-01-31T17:25:32.812Z,1.63
2023-01-31T17:28:00.295Z,2.10
2023-01-31T17:30:30.252Z,2.30
2023-01-31T17:32:57.868Z,2.40
2023-01-31T17:35:26.761Z,2.70
2023-01-31T17:37:54.096Z,3.00
2023-01-31T17:40:21.503Z,3.10
2023-01-31T17:42:49.170Z,2.83
2023-01-31T17:45:18.290Z,2.23
2023-01-31T17:47:46.625Z,2.83
2023-01-31T17:50:24.549Z,2.67
2023-01-31T17:52:52.163Z,2.93
2023-01-31T17:55:20.467Z,2.80
2023-01-31T17:57:47.929Z,3.03
2023-01-31T18:00:17.296Z,3.17
2023-01-31T18:02:46.169Z,3.40
2023-01-31T18:05:14.509Z,3.47
2023-01-31T18:07:41.889Z,3.00
2023-01-31T18:10:09.965Z,3.30
2023-01-31T18:12:37.410Z,3.43
2023-01-31T18:15:05.051Z,3.67
2023-01-31T18:17:32.705Z,3.23
2023-01-31T18:20:00.160Z,3.53
2023-01-31T18:22:27.641Z,3.50
2023-01-31T18:24:54.923Z,3.30
2023-01-31T18:27:22.374Z,3.57
2023-01-31T18:29:49.804Z,3.10
2023-01-31T18:32:19.198Z,3.37
2023-01-31T18:34:47.537Z,3.33
2023-01-31T18:37:20.236Z,3.77
2023-01-31T18:39:51.007Z,3.90
2023-01-31T18:42:20.763Z,3.77
2023-01-31T18:44:48.223Z,4.03
2023-01-31T18:47:16.410Z,3.67
2023-01-31T18:49:44.128Z,3.73
2023-01-31T18:52:11.846Z,4.20
2023-01-31T18:54:39.736Z,3.50
2023-01-31T18:57:07.236Z,4.07
2023-01-31T18:59:35.130Z,3.67
2023-01-31T19:02:02.481Z,4.03
2023-01-31T19:04:29.976Z,3.63
2023-01-31T19:06:57.574Z,4.07
2023-01-31T19:09:24.916Z,4.00
2023-01-31T19:11:52.334Z,3.70
2023-01-31T19:14:23.858Z,3.43
2023-01-31T19:16:51.163Z,4.07
2023-01-31T19:19:18.614Z,10.43
2023-01-31T19:21:45.971Z,4.43
2023-01-31T19:24:14.401Z,4.03
2023-01-31T19:26:42.424Z,4.10
2023-01-31T19:29:12.205Z,4.40
2023-01-31T19:31:39.605Z,4.27
2023-01-31T19:34:07.499Z,4.17
2023-01-31T19:36:36.602Z,3.93
2023-01-31T19:39:05.689Z,4.23
2023-01-31T19:41:33.696Z,4.07
2023-01-31T19:44:01.920Z,4.40
2023-01-31T19:46:30.957Z,4.20
2023-01-31T19:48:58.670Z,4.53
2023-01-31T19:51:26.129Z,9.53
2023-01-31T19:53:59.149Z,5.30
2023-01-31T19:56:26.921Z,6.27
2023-01-31T19:58:54.458Z,5.40
2023-01-31T20:01:22.243Z,4.47
2023-01-31T20:03:50.431Z,4.87
2023-01-31T20:06:28.021Z,4.57
2023-01-31T20:08:57.174Z,4.50
2023-01-31T20:11:24.858Z,4.53
2023-01-31T20:13:53.406Z,4.77
2023-01-31T20:16:21.472Z,4.73
2023-01-31T20:18:48.883Z,5.10
2023-01-31T20:21:17.828Z,4.70
2023-01-31T20:23:45.642Z,4.93
2023-01-31T20:26:13.296Z,4.23
2023-01-31T20:28:40.720Z,4.70
2023-01-31T20:31:09.540Z,5.17
2023-01-31T20:33:37.194Z,4.17
2023-01-31T20:36:05.454Z,4.60
2023-01-31T20:38:33.472Z,3.80
2023-01-31T20:41:05.326Z,4.30
2023-01-31T20:43:32.677Z,4.10
2023-01-31T20:46:04.396Z,4.17
2023-01-31T20:48:31.814Z,4.30
2023-01-31T20:50:59.813Z,4.13
2023-01-31T20:53:28.823Z,4.20
2023-01-31T20:56:06.539Z,4.10
2023-01-31T20:58:35.250Z,4.33
2023-01-31T21:01:05.843Z,4.57
2023-01-31T21:03:33.848Z,5.10
2023-01-31T21:06:01.665Z,4.93
2023-01-31T21:08:29.567Z,4.87
2023-01-31T21:10:58.286Z,4.10
2023-01-31T21:13:29.036Z,5.53
2023-01-31T21:16:02.033Z,4.67
2023-01-31T21:18:30.339Z,4.60
2023-01-31T21:20:57.853Z,4.40
2023-01-31T21:23:25.683Z,4.70
2023-01-31T21:25:53.058Z,5.53
2023-01-31T21:28:20.462Z,5.00
2023-01-31T21:30:58.522Z,5.20
2023-01-31T21:33:26.368Z,5.23
2023-01-31T21:35:53.722Z,4.40
2023-01-31T21:38:21.283Z,4.87
2023-01-31T21:40:48.683Z,5.00
2023-01-31T21:43:16.403Z,5.00
2023-01-31T21:45:43.761Z,4.70
2023-01-31T21:48:30.578Z,4.33
2023-01-31T21:50:58.968Z,5.13
2023-01-31T21:53:28.853Z,4.80
2023-01-31T21:56:04.056Z,4.93
2023-01-31T21:58:31.531Z,4.30
2023-01-31T22:01:10.959Z,5.07
2023-01-31T22:03:39.447Z,4.50
2023-01-31T22:06:08.107Z,4.60
2023-01-31T22:08:36.053Z,4.30
2023-01-31T22:11:08.080Z,3.80
2023-01-31T22:13:35.882Z,4.90
2023-01-31T22:16:04.794Z,4.37
2023-01-31T22:18:32.765Z,4.63
2023-01-31T22:21:06.461Z,4.90
2023-01-31T22:23:34.686Z,4.23
2023-01-31T22:26:09.225Z,3.97
2023-01-31T22:28:36.581Z,4.23
2023-01-31T22:31:04.779Z,4.37
2023-01-31T22:33:33.252Z,3.90
2023-01-31T22:36:01.081Z,4.43
2023-01-31T22:38:28.638Z,4.07
2023-01-31T22:41:03.564Z,3.53
2023-01-31T22:43:31.400Z,3.53
2023-01-31T22:46:00.533Z,3.67
2023-01-31T22:48:28.283Z,3.50
2023-01-31T22:50:56.842Z,3.93
2023-01-31T22:53:24.803Z,4.17
2023-01-31T22:55:52.569Z,4.07
2023-01-31T22:58:20.390Z,4.43
2023-01-31T23:00:48.244Z,3.90
2023-01-31T23:03:15.891Z,4.23
2023-01-31T23:05:43.758Z,4.17
2023-01-31T23:08:11.863Z,4.50
2023-01-31T23:10:40.080Z,3.90
2023-01-31T23:13:07.723Z,3.60
2023-01-31T23:15:35.442Z,3.07
2023-01-31T23:18:03.574Z,3.07
2023-01-31T23:20:31.123Z,2.83
2023-01-31T23:22:58.714Z,2.50
2023-01-31T23:25:27.562Z,2.77
2023-01-31T23:27:56.485Z,3.10
2023-01-31T23:30:24.442Z,3.30
2023-01-31T23:32:52.557Z,2.90
2023-01-31T23:35:20.185Z,2.90
2023-01-31T23:37:47.803Z,3.03
2023-01-31T23:40:15.332Z,3.47
2023-01-31T23:42:42.712Z,3.30
2023-01-31T23:45:10.461Z,3.17
2023-01-31T23:47:40.425Z,3.40
2023-01-31T23:50:07.963Z,2.60
2023-01-31T23:52:35.203Z,3.10
2023-01-31T23:55:02.529Z,2.70
2023-01-31T23:57:29.845Z,2.97
2023-01-31T23:59:57.127Z,3.30
